createdAt,value
2023-03-12T00:02:04.198Z,69.88
2023-03-12T00:04:41.832Z,69.90
2023-03-12T00:07:16.846Z,69.89
2023-03-12T00:09:46.916Z,69.91
2023-03-12T00:12:15.961Z,69.80
2023-03-12T00:14:45.459Z,69.82
2023-03-12T00:17:14.380Z,69.83
2023-03-12T00:19:45.759Z,69.73
2023-03-12T00:22:22.773Z,69.71
2023-03-12T00:24:57.280Z,69.73
2023-03-12T00:27:26.791Z,69.87
2023-03-12T00:29:57.986Z,69.69
2023-03-12T00:32:32.384Z,69.66
2023-03-12T00:35:02.657Z,69.80
2023-03-12T00:37:35.338Z,69.81
2023-03-12T00:40:06.200Z,69.69
2023-03-12T00:42:41.349Z,69.65
2023-03-12T00:45:13.436Z,69.62
2023-03-12T00:47:44.912Z,69.67
2023-03-12T00:50:16.171Z,69.72
2023-03-12T00:52:45.730Z,69.71
2023-03-12T00:55:19.882Z,69.66
2023-03-12T00:57:49.299Z,69.59
2023-03-12T01:00:25.447Z,69.74
2023-03-12T01:02:59.387Z,69.90
2023-03-12T01:05:32.944Z,69.86
2023-03-12T01:08:05.435Z,69.84
2023-03-12T01:10:36.140Z,69.73
2023-03-12T01:13:05.423Z,69.75
2023-03-12T01:15:37.299Z,69.64
2023-03-12T01:18:06.182Z,69.68
2023-03-12T01:20:35.354Z,69.74
2023-03-12T01:23:08.102Z,69.80
2023-03-12T01:25:37.714Z,69.87
2023-03-12T01:28:09.481Z,69.80
2023-03-12T01:30:53.047Z,69.78
2023-03-12T01:33:25.220Z,69.86
2023-03-12T01:35:54.169Z,69.78
2023-03-12T01:38:25.852Z,70.01
2023-03-12T01:40:54.953Z,70.06
2023-03-12T01:43:46.069Z,69.91
2023-03-12T01:46:38.075Z,69.82
2023-03-12T01:49:29.134Z,69.75
2023-03-12T01:52:11.213Z,69.76
2023-03-12T01:54:56.032Z,69.85
2023-03-12T01:57:43.616Z,69.80
2023-03-12T02:00:23.675Z,69.93
2023-03-12T02:03:05.118Z,69.99
2023-03-12T02:05:47.286Z,69.93
2023-03-12T02:08:20.637Z,69.95
2023-03-12T02:10:49.500Z,70.00
2023-03-12T02:13:18.834Z,69.94
2023-03-12T02:15:49.110Z,70.03
2023-03-12T02:18:22.505Z,69.93
2023-03-12T02:21:26.084Z,69.86
2023-03-12T02:24:29.341Z,70.04
2023-03-12T02:27:04.254Z,70.17
2023-03-12T02:29:36.025Z,70.12
2023-03-12T02:32:10.471Z,70.15
2023-03-12T02:34:44.586Z,70.14
2023-03-12T02:37:24.541Z,70.14
2023-03-12T02:40:16.060Z,70.17
2023-03-12T02:42:49.484Z,70.20
2023-03-12T02:45:36.016Z,70.08
2023-03-12T02:48:09.382Z,70.13
2023-03-12T02:50:45.474Z,70.02
2023-03-12T02:53:17.089Z,69.93
2023-03-12T02:55:45.923Z,69.88
2023-03-12T02:58:17.571Z,69.85
2023-03-12T03:00:46.598Z,69.75
2023-03-12T03:03:20.091Z,69.76
2023-03-12T03:05:51.834Z,69.54
2023-03-12T03:08:23.132Z,69.41
2023-03-12T03:10:55.132Z,69.36
2023-03-12T03:13:31.387Z,69.35
2023-03-12T03:16:06.038Z,69.40
2023-03-12T03:18:35.528Z,69.26
2023-03-12T03:21:10.834Z,69.30
2023-03-12T03:23:43.023Z,69.20
2023-03-12T03:26:14.880Z,69.15
2023-03-12T03:28:46.529Z,69.15
2023-03-12T03:31:16.253Z,69.08
2023-03-12T03:33:47.951Z,69.21
2023-03-12T03:36:18.585Z,69.13
2023-03-12T03:39:05.146Z,69.10
2023-03-12T03:41:34.967Z,69.01
2023-03-12T03:44:07.585Z,68.84
2023-03-12T03:46:38.176Z,68.85
2023-03-12T03:49:14.082Z,68.71
2023-03-12T03:51:52.335Z,68.72
2023-03-12T03:54:31.963Z,68.74
2023-03-12T03:57:12.585Z,68.61
2023-03-12T03:59:44.943Z,68.61
2023-03-12T04:02:20.373Z,68.73
2023-03-12T04:05:01.794Z,68.72
2023-03-12T04:07:38.396Z,68.76
2023-03-12T04:10:11.861Z,68.76
2023-03-12T04:12:40.868Z,68.83
2023-03-12T04:15:12.599Z,68.89
2023-03-12T04:17:48.812Z,68.86
2023-03-12T04:20:18.110Z,68.92
2023-03-12T04:22:48.816Z,69.03
2023-03-12T04:25:19.734Z,69.10
2023-03-12T04:28:02.160Z,69.16
2023-03-12T04:30:38.197Z,69.23
2023-03-12T04:33:14.860Z,69.15
2023-03-12T04:35:57.394Z,69.13
2023-03-12T04:38:34.830Z,69.15
2023-03-12T04:41:11.873Z,69.21
2023-03-12T04:43:46.306Z,69.00
2023-03-12T04:46:15.576Z,68.96
2023-03-12T04:48:47.624Z,68.86
2023-03-12T04:51:18.186Z,68.78
2023-03-12T04:53:49.576Z,68.70
2023-03-12T04:56:19.087Z,68.71
2023-03-12T04:58:52.945Z,68.80
2023-03-12T05:01:29.025Z,68.71
2023-03-12T05:03:58.154Z,68.67
2023-03-12T05:06:29.349Z,68.65
2023-03-12T05:09:01.675Z,68.75
2023-03-12T05:11:39.908Z,68.79
2023-03-12T05:14:12.469Z,68.75
2023-03-12T05:16:42.242Z,68.67
2023-03-12T05:19:11.624Z,68.79
2023-03-12T05:21:44.504Z,68.94
2023-03-12T05:24:19.020Z,69.04
2023-03-12T05:26:48.231Z,69.04
2023-03-12T05:29:25.518Z,69.03
2023-03-12T05:32:04.757Z,69.07
2023-03-12T05:34:37.468Z,69.16
2023-03-12T05:37:07.370Z,69.35
2023-03-12T05:39:46.532Z,69.17
2023-03-12T05:42:26.852Z,69.20
2023-03-12T05:45:01.575Z,69.08
2023-03-12T05:47:31.100Z,69.12
2023-03-12T05:50:07.874Z,69.04
2023-03-12T05:52:57.010Z,69.11
2023-03-12T05:55:37.515Z,68.85
2023-03-12T05:58:08.009Z,68.66
2023-03-12T06:00:38.637Z,68.51
2023-03-12T06:03:23.563Z,68.38
2023-03-12T06:06:21.113Z,68.38
2023-03-12T06:09:10.747Z,68.30
2023-03-12T06:12:04.277Z,68.31
2023-03-12T06:15:01.224Z,68.34
2023-03-12T06:17:35.527Z,68.35
2023-03-12T06:20:16.515Z,68.46
2023-03-12T06:22:47.381Z,68.54
2023-03-12T06:25:25.429Z,68.66
2023-03-12T06:28:03.899Z,68.63
2023-03-12T06:30:52.214Z,68.33
2023-03-12T06:33:24.835Z,67.99
2023-03-12T06:36:09.725Z,67.79
2023-03-12T06:38:49.550Z,67.61
2023-03-12T06:41:23.881Z,67.56
2023-03-12T06:44:00.296Z,67.41
2023-03-12T06:46:33.705Z,67.29
2023-03-12T06:49:12.490Z,66.99
2023-03-12T06:52:00.073Z,66.81
2023-03-12T06:54:35.575Z,66.93
2023-03-12T06:57:23.592Z,67.17
2023-03-12T07:00:03.467Z,67.17
2023-03-12T07:02:36.313Z,67.19
2023-03-12T07:05:09.424Z,67.21
2023-03-12T07:07:44.252Z,67.32
2023-03-12T07:10:15.874Z,67.19
2023-03-12T07:12:45.718Z,66.88
2023-03-12T07:15:14.503Z,66.80
2023-03-12T07:17:42.901Z,66.98
2023-03-12T07:20:39.112Z,65.68
2023-03-12T07:23:38.407Z,63.97
2023-03-12T07:26:16.373Z,63.33
2023-03-12T07:28:50.895Z,63.92
2023-03-12T07:31:29.748Z,63.65
2023-03-12T07:34:05.930Z,62.95
2023-03-12T07:36:42.619Z,62.32
2023-03-12T07:39:14.563Z,61.37
2023-03-12T07:41:45.098Z,59.87
2023-03-12T07:44:14.435Z,58.84
2023-03-12T07:46:43.782Z,59.08
2023-03-12T07:49:17.808Z,58.24
2023-03-12T07:51:50.223Z,57.23
2023-03-12T07:54:19.551Z,56.68
2023-03-12T07:56:56.518Z,55.92
2023-03-12T07:59:26.563Z,54.09
2023-03-12T08:01:55.206Z,54.55
2023-03-12T08:04:25.622Z,54.62
2023-03-12T08:06:54.879Z,54.44
2023-03-12T08:09:29.453Z,52.93
2023-03-12T08:12:01.664Z,52.38
2023-03-12T08:14:46.767Z,51.97
2023-03-12T08:17:26.851Z,52.54
2023-03-12T08:20:11.525Z,52.21
2023-03-12T08:22:55.709Z,51.76
2023-03-12T08:25:28.604Z,51.72
2023-03-12T08:28:02.016Z,51.27
2023-03-12T08:30:38.029Z,51.03
2023-03-12T08:33:14.378Z,50.36
2023-03-12T08:35:51.384Z,49.03
2023-03-12T08:38:22.278Z,48.00
2023-03-12T08:41:05.215Z,48.56
2023-03-12T08:43:37.367Z,49.27
2023-03-12T08:46:06.523Z,48.81
2023-03-12T08:48:41.128Z,48.32
2023-03-12T08:51:19.227Z,48.25
2023-03-12T08:53:54.928Z,48.45
2023-03-12T08:56:23.706Z,47.35
2023-03-12T08:59:06.917Z,46.51
2023-03-12T09:01:43.717Z,46.73
2023-03-12T09:04:17.693Z,47.23
2023-03-12T09:06:59.362Z,47.77
2023-03-12T09:09:36.567Z,46.61
2023-03-12T09:12:19.327Z,46.24
2023-03-12T09:15:03.399Z,47.11
2023-03-12T09:17:37.537Z,47.58
2023-03-12T09:20:14.252Z,46.50
2023-03-12T09:22:53.075Z,45.30
2023-03-12T09:25:23.186Z,44.83
2023-03-12T09:28:03.960Z,44.47
2023-03-12T09:30:36.312Z,44.38
2023-03-12T09:33:07.346Z,44.47
2023-03-12T09:35:37.372Z,43.56
2023-03-12T09:38:15.150Z,43.47
2023-03-12T09:40:50.440Z,43.58
2023-03-12T09:48:39.710Z,43.35
2023-03-12T09:51:25.283Z,42.98
2023-03-12T09:54:03.440Z,42.34
2023-03-12T09:57:08.834Z,42.20
2023-03-12T09:59:42.763Z,41.37
2023-03-12T10:02:57.739Z,41.69
2023-03-12T10:06:07.071Z,40.86
2023-03-12T10:09:07.894Z,39.49
2023-03-12T10:12:36.435Z,40.27
2023-03-12T10:15:41.118Z,39.64
2023-03-12T10:18:54.106Z,38.05
2023-03-12T10:21:54.780Z,37.58
2023-03-12T10:24:57.196Z,37.27
2023-03-12T10:27:40.335Z,35.77
2023-03-12T10:30:28.303Z,35.19
2023-03-12T10:33:10.366Z,34.58
2023-03-12T10:35:54.490Z,33.54
2023-03-12T10:38:36.199Z,31.83
2023-03-12T10:41:44.136Z,30.79
2023-03-12T10:44:43.759Z,30.96
2023-03-12T10:47:44.397Z,29.50
2023-03-12T10:50:23.621Z,29.37
2023-03-12T10:53:19.180Z,29.48
2023-03-12T10:56:47.406Z,27.79
2023-03-12T10:59:28.946Z,26.52
2023-03-12T11:02:40.237Z,27.54
2023-03-12T11:05:55.173Z,28.30
2023-03-12T11:08:38.279Z,28.39
2023-03-12T11:11:37.586Z,28.29
2023-03-12T11:14:18.863Z,28.32
2023-03-12T11:17:00.938Z,28.56
2023-03-12T11:19:37.502Z,28.79
2023-03-12T11:22:37.386Z,29.67
2023-03-12T11:25:42.669Z,30.71
2023-03-12T11:28:40.906Z,31.75
2023-03-12T11:31:47.488Z,32.70
2023-03-12T11:34:41.962Z,33.76
2023-03-12T11:38:19.699Z,34.51
2023-03-12T11:40:58.437Z,35.45
2023-03-12T11:43:43.886Z,36.66
2023-03-12T11:47:07.578Z,36.92
2023-03-12T11:50:13.223Z,37.42
2023-03-12T11:53:12.832Z,38.03
2023-03-12T11:56:07.381Z,38.51
2023-03-12T11:59:03.088Z,38.69
2023-03-12T12:02:08.898Z,39.21
2023-03-12T12:05:17.395Z,39.35
2023-03-12T12:08:16.931Z,39.53
2023-03-12T12:11:35.426Z,39.58
2023-03-12T12:14:59.511Z,39.97
2023-03-12T12:18:10.792Z,40.13
2023-03-12T12:21:20.070Z,40.07
2023-03-12T12:24:18.122Z,40.39
2023-03-12T12:27:29.300Z,40.22
2023-03-12T12:30:51.922Z,40.24
2023-03-12T12:34:04.669Z,40.50
2023-03-12T12:36:50.125Z,40.60
2023-03-12T12:39:43.113Z,40.64
2023-03-12T12:42:33.879Z,40.82
2023-03-12T12:45:15.419Z,41.07
2023-03-12T12:48:17.130Z,41.53
2023-03-12T12:51:08.703Z,41.50
2023-03-12T12:54:06.223Z,41.13
2023-03-12T12:57:04.669Z,41.18
2023-03-12T13:00:21.439Z,41.29
2023-03-12T13:03:08.354Z,41.51
2023-03-12T13:06:06.050Z,41.63
2023-03-12T13:09:27.711Z,42.09
2023-03-12T13:12:11.452Z,42.14
2023-03-12T13:14:52.895Z,41.79
2023-03-12T13:18:16.827Z,41.88
2023-03-12T13:21:12.056Z,42.13
2023-03-12T13:24:08.212Z,42.19
2023-03-12T13:26:59.253Z,42.35
2023-03-12T13:29:41.435Z,42.38
2023-03-12T13:32:40.473Z,42.50
2023-03-12T13:35:45.414Z,42.68
2023-03-12T13:39:01.423Z,42.97
2023-03-12T13:42:03.852Z,43.24
2023-03-12T13:44:53.562Z,43.25
2023-03-12T13:47:47.196Z,43.38
2023-03-12T13:50:26.431Z,43.35
2023-03-12T13:53:19.160Z,43.23
2023-03-12T13:56:24.138Z,43.39
2023-03-12T13:59:29.138Z,43.62
2023-03-12T14:06:13.648Z,44.29
2023-03-12T14:09:30.813Z,44.24
2023-03-12T14:12:40.642Z,44.29
2023-03-12T14:15:12.907Z,44.22
2023-03-12T14:17:59.278Z,44.33
2023-03-12T14:20:34.372Z,44.48
2023-03-12T14:23:28.318Z,44.52
2023-03-12T14:26:04.404Z,44.51
2023-03-12T14:28:44.320Z,44.52
2023-03-12T14:34:32.051Z,44.35
2023-03-12T14:37:31.127Z,44.58
2023-03-12T14:40:51.810Z,44.57
2023-03-12T14:43:36.184Z,44.65
2023-03-12T14:46:26.004Z,44.77
2023-03-12T14:49:23.988Z,44.76
2023-03-12T14:52:06.355Z,44.74
2023-03-12T14:54:43.465Z,44.86
2023-03-12T14:57:27.117Z,44.97
2023-03-12T15:00:13.996Z,45.01
2023-03-12T15:02:56.851Z,45.22
2023-03-12T15:05:37.853Z,45.33
2023-03-12T15:08:22.288Z,45.35
2023-03-12T15:11:01.440Z,45.59
2023-03-12T15:13:43.110Z,45.66
2023-03-12T15:16:30.248Z,45.72
2023-03-12T15:19:23.299Z,45.86
2023-03-12T15:22:01.849Z,45.88
2023-03-12T15:24:48.626Z,45.88
2023-03-12T15:27:43.804Z,46.00
2023-03-12T15:30:41.674Z,46.08
2023-03-12T15:33:18.626Z,46.26
2023-03-12T15:36:18.109Z,46.33
2023-03-12T15:43:14.403Z,46.69
2023-03-12T15:46:29.414Z,46.82
2023-03-12T15:49:36.962Z,47.09
2023-03-12T15:52:38.560Z,47.22
2023-03-12T15:55:31.168Z,47.47
2023-03-12T15:58:38.961Z,47.62
2023-03-12T16:01:36.190Z,47.71
2023-03-12T16:04:27.267Z,47.90
2023-03-12T16:07:14.653Z,47.99
2023-03-12T16:09:55.582Z,48.02
2023-03-12T16:12:28.821Z,48.22
2023-03-12T16:15:03.281Z,48.43
2023-03-12T16:17:49.785Z,48.46
2023-03-12T16:20:35.532Z,48.56
2023-03-12T16:23:14.581Z,48.71
2023-03-12T16:26:00.770Z,48.83
2023-03-12T16:28:45.264Z,48.95
2023-03-12T16:31:26.434Z,48.93
2023-03-12T16:34:16.696Z,48.99
2023-03-12T16:37:03.216Z,49.12
2023-03-12T16:39:52.598Z,49.11
2023-03-12T16:46:00.945Z,49.28
2023-03-12T16:48:47.013Z,49.24
2023-03-12T16:51:32.863Z,49.25
2023-03-12T16:54:14.235Z,49.36
2023-03-12T16:56:57.037Z,49.36
2023-03-12T16:59:34.619Z,49.21
2023-03-12T17:02:24.828Z,49.23
2023-03-12T17:05:16.860Z,49.53
2023-03-12T17:08:11.739Z,49.76
2023-03-12T17:10:45.508Z,50.03
2023-03-12T17:13:33.008Z,50.30
2023-03-12T17:16:10.431Z,50.47
2023-03-12T17:18:47.042Z,50.81
2023-03-12T17:21:27.394Z,50.88
2023-03-12T17:24:08.839Z,51.29
2023-03-12T17:26:43.639Z,51.50
2023-03-12T17:29:12.596Z,51.58
2023-03-12T17:31:41.676Z,51.56
2023-03-12T17:34:22.074Z,51.62
2023-03-12T17:36:57.717Z,51.68
2023-03-12T17:39:52.221Z,51.96
2023-03-12T17:42:34.550Z,51.80
2023-03-12T17:45:10.854Z,52.04
2023-03-12T17:47:52.477Z,52.17
2023-03-12T17:50:21.818Z,52.21
2023-03-12T17:53:02.330Z,52.27
2023-03-12T17:55:31.290Z,52.32
2023-03-12T17:58:02.306Z,52.45
2023-03-12T18:00:35.052Z,52.51
2023-03-12T18:03:08.386Z,52.55
2023-03-12T18:05:43.928Z,52.55
2023-03-12T18:08:19.215Z,52.66
2023-03-12T18:11:10.098Z,52.78
2023-03-12T18:13:44.398Z,52.88
2023-03-12T18:16:18.577Z,52.88
2023-03-12T18:18:53.406Z,53.03
2023-03-12T18:21:35.905Z,53.08
2023-03-12T18:24:25.867Z,53.09
2023-03-12T18:27:06.698Z,53.31
2023-03-12T18:29:41.071Z,53.36
2023-03-12T18:32:24.152Z,53.47
2023-03-12T18:35:06.035Z,53.77
2023-03-12T18:37:51.765Z,53.83
2023-03-12T18:40:32.438Z,53.87
2023-03-12T18:43:04.497Z,53.88
2023-03-12T18:45:45.551Z,53.90
2023-03-12T18:48:21.786Z,53.94
2023-03-12T18:51:13.764Z,53.95
2023-03-12T18:54:04.670Z,54.02
2023-03-12T18:56:43.050Z,53.89
2023-03-12T18:59:21.494Z,54.00
2023-03-12T19:02:14.098Z,54.09
2023-03-12T19:04:48.560Z,54.13
2023-03-12T19:07:21.968Z,54.17
2023-03-12T19:10:40.497Z,54.23
2023-03-12T19:13:27.379Z,54.24
2023-03-12T19:16:10.344Z,54.32
2023-03-12T19:18:59.162Z,54.22
2023-03-12T19:21:32.806Z,54.26
2023-03-12T19:24:07.413Z,54.22
2023-03-12T19:26:57.027Z,54.18
2023-03-12T19:29:36.633Z,54.23
2023-03-12T19:32:11.895Z,54.32
2023-03-12T19:34:50.082Z,54.19
2023-03-12T19:37:34.647Z,54.08
2023-03-12T19:40:09.118Z,54.14
2023-03-12T19:42:44.846Z,54.24
2023-03-12T19:45:20.361Z,54.29
2023-03-12T19:47:55.051Z,54.26
2023-03-12T19:50:30.016Z,54.02
2023-03-12T19:53:25.879Z,53.86
2023-03-12T19:56:00.820Z,54.03
2023-03-12T19:58:32.506Z,53.90
2023-03-12T20:01:10.147Z,54.03
2023-03-12T20:03:45.630Z,53.98
2023-03-12T20:06:20.540Z,53.71
2023-03-12T20:08:50.684Z,53.56
2023-03-12T20:11:28.609Z,53.48
2023-03-12T20:14:09.658Z,53.21
2023-03-12T20:16:43.325Z,52.98
2023-03-12T20:19:18.803Z,52.76
2023-03-12T20:21:52.899Z,52.62
2023-03-12T20:24:24.108Z,52.47
2023-03-12T20:26:58.305Z,52.43
2023-03-12T20:29:37.770Z,52.46
2023-03-12T20:32:08.774Z,52.33
2023-03-12T20:34:37.476Z,52.17
2023-03-12T20:37:11.877Z,52.16
2023-03-12T20:39:44.149Z,52.32
2023-03-12T20:42:15.311Z,52.49
2023-03-12T20:44:45.082Z,52.71
2023-03-12T20:47:23.985Z,52.94
2023-03-12T20:50:04.732Z,53.13
2023-03-12T20:52:43.539Z,53.43
2023-03-12T20:55:24.952Z,53.79
2023-03-12T20:58:02.087Z,54.14
2023-03-12T21:00:34.653Z,54.63
2023-03-12T21:03:19.387Z,55.07
2023-03-12T21:06:02.972Z,55.43
2023-03-12T21:08:37.195Z,55.83
2023-03-12T21:11:11.964Z,56.24
2023-03-12T21:13:47.450Z,56.59
2023-03-12T21:16:16.450Z,56.85
2023-03-12T21:18:54.792Z,57.12
2023-03-12T21:21:33.185Z,57.44
2023-03-12T21:24:09.841Z,57.94
2023-03-12T21:26:39.846Z,58.15
2023-03-12T21:29:08.732Z,58.22
2023-03-12T21:31:44.059Z,58.52
2023-03-12T21:34:25.135Z,58.41
2023-03-12T21:37:17.294Z,58.68
2023-03-12T21:40:09.452Z,59.13
2023-03-12T21:42:58.485Z,59.44
2023-03-12T21:45:41.739Z,59.54
2023-03-12T21:48:22.627Z,59.58
2023-03-12T21:51:06.650Z,59.70
2023-03-12T21:53:46.174Z,59.98
2023-03-12T21:56:24.188Z,60.07
2023-03-12T21:58:57.527Z,60.21
2023-03-12T22:02:31.936Z,60.39
2023-03-12T22:05:21.800Z,60.59
2023-03-12T22:08:25.519Z,60.68
2023-03-12T22:11:12.995Z,60.97
2023-03-12T22:13:59.923Z,60.84
2023-03-12T22:16:33.505Z,60.83
2023-03-12T22:19:28.165Z,60.98
2023-03-12T22:22:22.147Z,61.23
2023-03-12T22:25:06.318Z,61.32
2023-03-12T22:31:43.182Z,61.88
2023-03-12T22:34:18.151Z,62.03
2023-03-12T22:36:53.169Z,62.00
2023-03-12T22:39:24.689Z,62.31
2023-03-12T22:42:01.937Z,62.48
2023-03-12T22:44:46.912Z,62.61
2023-03-12T22:47:33.262Z,62.75
2023-03-12T22:50:05.458Z,62.89
2023-03-12T22:52:39.649Z,63.29
2023-03-12T22:55:28.950Z,63.64
2023-03-12T22:58:16.286Z,63.85
2023-03-12T23:01:02.574Z,63.97
2023-03-12T23:03:48.188Z,64.21
2023-03-12T23:06:32.858Z,64.45
2023-03-12T23:09:06.448Z,64.86
2023-03-12T23:11:42.921Z,64.84
2023-03-12T23:14:16.834Z,65.05
2023-03-12T23:16:50.904Z,65.04
2023-03-12T23:19:19.827Z,65.27
2023-03-12T23:22:12.533Z,65.31
2023-03-12T23:24:42.691Z,65.61
2023-03-12T23:27:12.005Z,65.65
2023-03-12T23:29:40.522Z,65.91
2023-03-12T23:32:10.364Z,66.29
2023-03-12T23:34:44.838Z,66.61
2023-03-12T23:37:22.626Z,66.93
2023-03-12T23:39:55.307Z,66.91
2023-03-12T23:42:31.516Z,67.40
2023-03-12T23:45:00.308Z,67.66
2023-03-12T23:47:31.266Z,67.70
2023-03-12T23:50:06.206Z,68.05
2023-03-12T23:52:34.730Z,68.28
2023-03-12T23:55:07.156Z,68.40
2023-03-12T23:57:41.409Z,68.57
